Time;durP1;ratioP1;P1;durP2;ratioP2;P2;SDS_P1;SDS_P2;PMS_P1;PMS_P2;Temp;Humidity;BMP_temperature;BMP_pressure;BME280_temperature;BME280_humidity;BME280_pressure;Samples;Min_cycle;Max_cycle;Signal;HPM_P1;HPM_P2
2022/09/22 00:01:06;;;;;;;4.28;2.58;;;8.30;59.90;;;;;;5096777;28;20032;-59
2022/09/22 00:03:37;;;;;;;3.45;2.35;;;8.30;61.00;;;;;;5106586;28;20032;-58
2022/09/22 00:06:12;;;;;;;4.70;2.33;;;8.30;60.30;;;;;;5107765;28;20043;-58
2022/09/22 00:08:41;;;;;;;3.85;2.20;;;8.20;60.80;;;;;;5091550;28;20062;-58
2022/09/22 00:11:19;;;;;;;3.08;2.10;;;8.20;60.40;;;;;;5086162;28;20032;-59
2022/09/22 00:13:53;;;;;;;3.38;2.08;;;8.20;61.00;;;;;;5070485;28;20025;-58
2022/09/22 00:16:22;;;;;;;3.38;2.00;;;8.20;60.80;;;;;;5065787;28;20503;-59
2022/09/22 00:18:50;;;;;;;4.43;2.35;;;8.10;60.50;;;;;;5084364;28;20116;-59
2022/09/22 00:21:18;;;;;;;3.55;1.98;;;8.10;60.50;;;;;;5082478;28;20089;-58
2022/09/22 00:23:46;;;;;;;4.75;2.10;;;8.10;60.40;;;;;;5087387;28;20024;-59
2022/09/22 00:26:14;;;;;;;2.35;1.83;;;8.10;60.40;;;;;;5085245;28;20033;-59
2022/09/22 00:28:42;;;;;;;2.50;1.88;;;8.00;60.20;;;;;;5084743;28;20560;-59
2022/09/22 00:31:11;;;;;;;3.15;1.83;;;8.00;60.20;;;;;;5076948;28;20100;-58
2022/09/22 00:33:38;;;;;;;2.67;1.88;;;8.00;60.30;;;;;;5073695;28;20029;-59
2022/09/22 00:36:04;;;;;;;3.70;2.00;;;8.00;60.40;;;;;;5065679;28;20088;-58
2022/09/22 00:38:30;;;;;;;2.92;1.70;;;7.90;60.50;;;;;;5069735;28;20116;-58
2022/09/22 00:40:56;;;;;;;2.00;1.67;;;7.90;60.40;;;;;;5089336;28;20461;-58
2022/09/22 00:43:24;;;;;;;3.22;1.90;;;7.90;60.50;;;;;;5098319;28;20089;-60
2022/09/22 00:46:11;;;;;;;6.72;2.10;;;7.90;60.80;;;;;;5032071;28;20283;-59
2022/09/22 00:48:44;;;;;;;3.28;1.92;;;7.90;61.30;;;;;;5089968;28;20051;-61
2022/09/22 00:51:12;;;;;;;3.03;1.85;;;7.90;60.70;;;;;;5085320;28;20088;-59
2022/09/22 00:53:38;;;;;;;3.60;1.75;;;7.80;60.70;;;;;;5099073;28;20028;-58
2022/09/22 00:56:07;;;;;;;8.05;1.98;;;7.80;60.70;;;;;;5069192;28;20043;-59
2022/09/22 00:58:58;;;;;;;4.45;1.90;;;7.80;60.80;;;;;;5092388;28;20497;-58
2022/09/22 01:01:24;;;;;;;2.85;1.73;;;7.80;61.40;;;;;;5080804;28;20036;-59
2022/09/22 01:03:50;;;;;;;5.43;1.95;;;7.80;61.00;;;;;;5091622;28;20024;-61
2022/09/22 01:06:20;;;;;;;4.53;1.70;;;7.70;61.00;;;;;;5083091;28;20063;-59
2022/09/22 01:08:46;;;;;;;2.70;1.63;;;7.70;61.20;;;;;;5072828;28;20050;-59
2022/09/22 01:11:14;;;;;;;2.60;1.63;;;7.70;61.00;;;;;;5088548;28;20037;-60
2022/09/22 01:14:01;;;;;;;1.40;1.30;;;7.70;60.90;;;;;;5095516;28;20021;-59
2022/09/22 01:16:39;;;;;;;3.45;1.77;;;7.70;61.70;;;;;;5089346;28;20507;-59
2022/09/22 01:19:24;;;;;;;2.40;1.63;;;7.60;61.00;;;;;;5088743;28;20046;-60
2022/09/22 01:22:08;;;;;;;2.08;1.67;;;7.60;61.80;;;;;;5085244;28;20049;-62
2022/09/22 01:25:05;;;;;;;2.28;1.90;;;7.50;61.30;;;;;;5089129;28;20028;-60
2022/09/22 01:28:01;;;;;;;4.18;1.52;;;7.50;62.30;;;;;;5068516;28;20068;-59
2022/09/22 01:30:56;;;;;;;2.58;1.75;;;7.50;62.50;;;;;;5081506;28;20020;-60
2022/09/22 01:33:21;;;;;;;4.57;1.90;;;7.50;62.30;;;;;;5087683;28;20031;-58
2022/09/22 01:35:56;;;;;;;2.67;1.60;;;7.50;61.40;;;;;;5108271;28;20024;-59
2022/09/22 01:39:09;;;;;;;1.90;1.60;;;7.50;62.10;;;;;;5081162;28;20106;-58
2022/09/22 01:41:59;;;;;;;2.67;1.75;;;7.50;62.90;;;;;;5069251;28;20658;-59
2022/09/22 01:44:42;;;;;;;3.83;1.85;;;7.50;62.80;;;;;;5085932;28;20088;-59
2022/09/22 01:47:18;;;;;;;2.25;1.60;;;7.40;62.10;;;;;;4990932;28;20078;-58
2022/09/22 01:50:02;;;;;;;2.72;1.70;;;7.40;62.20;;;;;;5091655;28;20505;-59
2022/09/22 01:52:32;;;;;;;3.25;1.50;;;7.40;62.40;;;;;;5086833;28;20036;-59
2022/09/22 01:55:13;;;;;;;3.83;1.40;;;7.40;62.10;;;;;;5095265;28;20035;-59
2022/09/22 01:57:54;;;;;;;1.60;1.40;;;7.40;62.50;;;;;;5080716;28;20048;-59
2022/09/22 02:00:22;;;;;;;2.35;1.48;;;7.30;62.20;;;;;;5084770;28;20033;-60
2022/09/22 02:03:07;;;;;;;1.90;1.63;;;7.40;61.70;;;;;;5098280;28;20419;-59
2022/09/22 02:05:43;;;;;;;2.72;1.92;;;7.40;62.60;;;;;;5087105;28;20071;-59
2022/09/22 02:08:25;;;;;;;2.65;1.70;;;7.30;62.30;;;;;;5079757;28;20042;-60
2022/09/22 02:10:52;;;;;;;2.58;1.77;;;7.30;62.60;;;;;;5067669;28;20392;-59
2022/09/22 02:13:18;;;;;;;2.17;1.75;;;7.30;62.10;;;;;;5074072;28;20056;-59
2022/09/22 02:15:59;;;;;;;3.40;1.67;;;7.30;61.90;;;;;;5079723;28;20029;-59
2022/09/22 02:18:46;;;;;;;1.90;1.58;;;7.30;62.00;;;;;;5080848;28;20066;-58
2022/09/22 02:21:13;;;;;;;5.45;1.60;;;7.30;62.40;;;;;;5080446;28;20021;-58
2022/09/22 02:23:40;;;;;;;2.42;1.40;;;7.30;61.70;;;;;;5084415;28;20374;-59
2022/09/22 02:26:07;;;;;;;5.03;2.42;;;7.20;61.80;;;;;;5084873;28;20043;-59
2022/09/22 02:28:37;;;;;;;5.55;2.83;;;7.20;62.00;;;;;;5075696;28;20037;-60
2022/09/22 02:31:05;;;;;;;4.88;2.50;;;7.20;62.10;;;;;;5079980;28;20044;-58
2022/09/22 02:33:34;;;;;;;5.30;2.50;;;7.20;62.00;;;;;;5069064;28;20426;-59
2022/09/22 02:36:19;;;;;;;3.97;2.03;;;7.20;62.00;;;;;;5066464;28;20025;-59
2022/09/22 02:39:05;;;;;;;2.83;1.92;;;7.10;62.70;;;;;;5077885;28;20020;-59
2022/09/22 02:41:43;;;;;;;5.28;2.92;;;7.10;62.70;;;;;;5079102;28;20045;-60
2022/09/22 02:44:18;;;;;;;6.75;3.45;;;7.10;62.10;;;;;;5077034;28;20043;-59
2022/09/22 02:46:54;;;;;;;7.60;3.42;;;7.10;61.90;;;;;;5032611;28;20113;-60
2022/09/22 02:49:22;;;;;;;8.73;3.45;;;7.10;62.10;;;;;;5075470;28;20033;-60
2022/09/22 02:51:49;;;;;;;8.02;3.85;;;7.00;61.80;;;;;;5106169;28;20119;-59
2022/09/22 02:54:16;;;;;;;4.38;2.80;;;7.00;61.80;;;;;;5083814;28;20036;-60
2022/09/22 02:56:42;;;;;;;2.97;2.30;;;7.00;62.00;;;;;;5098149;28;20052;-59
2022/09/22 02:59:10;;;;;;;4.43;2.42;;;7.00;62.10;;;;;;5095905;28;20043;-59
2022/09/22 03:01:37;;;;;;;4.88;2.38;;;7.00;62.40;;;;;;5100260;28;20088;-60
2022/09/22 03:04:03;;;;;;;2.92;1.92;;;6.90;62.60;;;;;;5098004;28;20060;-59
2022/09/22 03:06:29;;;;;;;2.63;1.90;;;7.00;62.70;;;;;;5066950;28;20049;-59
2022/09/22 03:08:55;;;;;;;4.53;2.20;;;6.90;62.70;;;;;;5076976;28;20039;-60
2022/09/22 03:11:21;;;;;;;5.70;2.85;;;6.90;62.90;;;;;;5103898;28;20099;-60
2022/09/22 03:13:46;;;;;;;3.88;2.60;;;6.90;62.90;;;;;;5090131;28;20032;-60
2022/09/22 03:16:12;;;;;;;8.25;2.63;;;6.90;62.90;;;;;;5084970;28;20033;-59
2022/09/22 03:18:38;;;;;;;6.20;2.35;;;6.90;63.00;;;;;;5075704;28;20162;-59
2022/09/22 03:21:04;;;;;;;4.97;2.90;;;6.90;63.10;;;;;;5067405;28;20070;-60
2022/09/22 03:23:29;;;;;;;5.88;2.63;;;6.90;63.10;;;;;;5081441;28;20089;-59
2022/09/22 03:25:55;;;;;;;2.70;2.08;;;6.90;63.00;;;;;;5072435;28;20135;-59
2022/09/22 03:28:21;;;;;;;4.90;2.30;;;6.90;63.00;;;;;;5080776;28;20063;-59
2022/09/22 03:30:46;;;;;;;4.57;2.35;;;6.90;63.10;;;;;;5105620;28;20043;-60
2022/09/22 03:33:12;;;;;;;4.88;2.28;;;6.80;63.10;;;;;;5077357;28;20056;-59
2022/09/22 03:35:38;;;;;;;2.72;2.10;;;6.80;63.00;;;;;;5083583;28;20036;-59
2022/09/22 03:38:04;;;;;;;3.85;2.22;;;6.80;63.00;;;;;;5076393;28;20028;-59
2022/09/22 03:40:30;;;;;;;3.47;2.10;;;6.80;62.90;;;;;;5085969;28;20056;-59
2022/09/22 03:42:55;;;;;;;4.70;2.30;;;6.80;62.90;;;;;;5104873;28;20032;-59
2022/09/22 03:45:21;;;;;;;4.18;1.55;;;6.80;62.90;;;;;;5076558;28;20048;-58
2022/09/22 03:47:47;;;;;;;6.93;1.67;;;6.70;63.10;;;;;;5088885;28;20105;-58
2022/09/22 03:50:13;;;;;;;3.70;1.85;;;6.70;63.30;;;;;;5081603;28;20071;-59
2022/09/22 03:52:41;;;;;;;3.28;1.90;;;6.70;63.40;;;;;;5104779;28;20032;-60
2022/09/22 03:55:08;;;;;;;6.15;1.95;;;6.70;63.40;;;;;;5090788;28;20028;-59
2022/09/22 03:57:34;;;;;;;5.32;2.05;;;6.70;63.40;;;;;;5088362;28;20028;-58
2022/09/22 03:59:59;;;;;;;3.50;1.98;;;6.70;63.50;;;;;;5077519;28;20028;-58
2022/09/22 04:02:25;;;;;;;3.25;2.00;;;6.70;63.70;;;;;;5084826;28;20032;-60
2022/09/22 04:04:51;;;;;;;4.57;2.30;;;6.70;63.90;;;;;;5080576;28;20037;-60
2022/09/22 04:07:16;;;;;;;3.08;2.38;;;6.60;63.60;;;;;;5103873;28;20028;-59
2022/09/22 04:09:42;;;;;;;3.33;2.45;;;6.60;63.70;;;;;;5082801;28;20033;-60
2022/09/22 04:12:08;;;;;;;4.78;2.70;;;6.60;63.50;;;;;;5075599;28;20134;-59
2022/09/22 04:14:34;;;;;;;4.00;2.22;;;6.60;63.40;;;;;;5082720;28;20199;-58
2022/09/22 04:17:00;;;;;;;2.85;1.90;;;6.60;63.50;;;;;;5104179;28;20028;-59
2022/09/22 04:19:26;;;;;;;6.97;2.38;;;6.60;63.50;;;;;;5076295;28;20033;-59
2022/09/22 04:21:52;;;;;;;4.10;2.58;;;6.60;63.60;;;;;;5095792;28;20028;-58
2022/09/22 04:24:17;;;;;;;5.82;2.65;;;6.50;63.50;;;;;;5084116;28;20091;-60
2022/09/22 04:26:43;;;;;;;5.18;2.90;;;6.50;63.50;;;;;;5090652;28;20033;-59
2022/09/22 04:29:09;;;;;;;7.10;2.90;;;6.50;63.60;;;;;;5097501;28;20040;-58
2022/09/22 04:31:34;;;;;;;4.50;3.00;;;6.50;63.30;;;;;;5097949;28;20032;-61
2022/09/22 04:34:00;;;;;;;4.18;2.75;;;6.50;63.20;;;;;;5099224;28;20086;-59
2022/09/22 04:36:26;;;;;;;5.97;3.35;;;6.40;63.20;;;;;;5078316;28;20029;-60
2022/09/22 04:38:51;;;;;;;7.13;3.00;;;6.40;63.20;;;;;;5103154;28;20020;-59
2022/09/22 04:41:17;;;;;;;4.20;2.90;;;6.40;63.40;;;;;;5066648;28;20025;-58
2022/09/22 04:43:43;;;;;;;4.20;2.72;;;6.40;63.40;;;;;;5102388;28;20068;-59
2022/09/22 04:46:09;;;;;;;7.53;2.80;;;6.40;63.50;;;;;;5085657;28;20064;-59
2022/09/22 04:48:34;;;;;;;4.32;2.45;;;6.40;63.50;;;;;;5073066;28;20087;-58
2022/09/22 04:51:00;;;;;;;4.47;2.45;;;6.40;63.40;;;;;;5082000;28;20036;-59
2022/09/22 04:53:26;;;;;;;10.52;2.65;;;6.40;63.30;;;;;;5105845;28;20032;-58
2022/09/22 04:55:51;;;;;;;8.55;2.38;;;6.40;63.30;;;;;;5089244;28;20074;-61
2022/09/22 04:58:17;;;;;;;12.00;2.40;;;6.30;63.30;;;;;;5089652;28;20028;-58
2022/09/22 05:00:43;;;;;;;3.25;2.28;;;6.30;63.50;;;;;;5072236;28;20033;-60
2022/09/22 05:03:10;;;;;;;5.35;2.17;;;6.30;63.30;;;;;;5086750;28;20032;-60
2022/09/22 05:05:37;;;;;;;4.88;2.15;;;6.30;63.20;;;;;;5089470;28;20142;-59
2022/09/22 05:08:03;;;;;;;5.78;2.28;;;6.30;63.30;;;;;;5088290;28;20031;-59
2022/09/22 05:10:33;;;;;;;5.40;2.28;;;6.30;63.50;;;;;;5076893;28;20108;-59
2022/09/22 05:12:59;;;;;;;3.35;2.10;;;6.30;63.70;;;;;;5068075;28;20029;-58
2022/09/22 05:15:24;;;;;;;3.38;2.10;;;6.30;63.90;;;;;;5078657;28;20098;-60
2022/09/22 05:17:52;;;;;;;4.32;2.53;;;6.30;63.90;;;;;;5097810;28;20043;-58
2022/09/22 05:20:19;;;;;;;3.70;1.90;;;6.30;64.00;;;;;;5092321;28;20028;-61
2022/09/22 05:22:46;;;;;;;3.83;2.08;;;6.30;63.80;;;;;;5083653;28;20029;-59
2022/09/22 05:25:14;;;;;;;5.43;2.20;;;6.30;63.70;;;;;;5073417;28;20039;-59
2022/09/22 05:27:48;;;;;;;10.73;2.17;;;6.30;63.70;;;;;;5078063;28;20037;-59
2022/09/22 05:30:15;;;;;;;4.70;2.05;;;6.30;63.70;;;;;;5080901;28;20044;-59
2022/09/22 05:32:45;;;;;;;6.80;2.40;;;6.30;63.60;;;;;;5102365;28;20032;-58
2022/09/22 05:35:12;;;;;;;4.95;2.53;;;6.30;63.90;;;;;;5089830;28;20055;-59
2022/09/22 05:37:38;;;;;;;4.80;2.33;;;6.30;64.00;;;;;;5104934;28;20035;-59
2022/09/22 05:40:06;;;;;;;7.38;2.22;;;6.30;64.10;;;;;;5111356;28;20028;-58
2022/09/22 05:42:32;;;;;;;4.28;2.38;;;6.30;64.00;;;;;;5088101;28;20032;-60
2022/09/22 05:44:58;;;;;;;7.20;2.60;;;6.40;64.10;;;;;;5000618;28;20033;-59
2022/09/22 05:47:24;;;;;;;6.00;2.83;;;6.40;64.30;;;;;;5088881;28;20141;-60
2022/09/22 05:49:49;;;;;;;5.15;2.33;;;6.50;64.50;;;;;;5083198;28;20050;-60
2022/09/22 05:52:15;;;;;;;6.68;2.63;;;6.50;64.60;;;;;;5105053;28;20032;-60
2022/09/22 05:54:41;;;;;;;2.38;2.00;;;6.60;64.70;;;;;;5092571;28;20359;-60
2022/09/22 05:57:07;;;;;;;6.55;2.28;;;6.60;64.80;;;;;;5106529;28;20016;-59
2022/09/22 05:59:33;;;;;;;7.90;2.33;;;6.70;64.70;;;;;;5104320;28;20124;-59
2022/09/22 06:01:58;;;;;;;9.02;2.85;;;6.80;64.90;;;;;;5093317;28;20035;-60
2022/09/22 06:04:24;;;;;;;7.00;2.42;;;6.90;65.00;;;;;;5094491;28;20024;-60
2022/09/22 06:06:50;;;;;;;14.90;2.70;;;6.90;65.00;;;;;;5107290;28;20096;-61
2022/09/22 06:09:16;;;;;;;7.32;2.85;;;7.00;65.70;;;;;;5083453;28;20084;-59
2022/09/22 06:11:42;;;;;;;12.38;2.90;;;7.10;65.00;;;;;;5066847;28;20021;-59
2022/09/22 06:14:08;;;;;;;12.48;2.83;;;7.20;65.00;;;;;;5102042;28;20078;-60
2022/09/22 06:16:33;;;;;;;6.45;2.67;;;7.30;65.00;;;;;;5079676;28;20029;-59
2022/09/22 06:18:59;;;;;;;7.05;2.60;;;7.40;64.90;;;;;;5084041;28;20415;-59
2022/09/22 06:21:25;;;;;;;4.50;2.63;;;7.50;64.70;;;;;;5094994;28;20508;-59
2022/09/22 06:23:51;;;;;;;6.05;2.55;;;7.60;64.80;;;;;;5082915;28;20088;-60
2022/09/22 06:26:16;;;;;;;8.85;3.20;;;7.70;64.80;;;;;;5077546;28;20056;-58
2022/09/22 06:28:42;;;;;;;4.32;2.58;;;7.80;64.80;;;;;;5067260;28;20056;-61
2022/09/22 06:31:08;;;;;;;8.00;2.67;;;8.00;64.70;;;;;;5086202;28;20031;-59
2022/09/22 06:33:34;;;;;;;15.43;2.92;;;8.10;64.70;;;;;;5081511;28;20025;-59
2022/09/22 06:36:00;;;;;;;10.13;2.80;;;8.20;64.60;;;;;;5078387;28;20036;-59
2022/09/22 06:38:26;;;;;;;9.60;2.70;;;8.30;64.60;;;;;;5084778;28;20790;-60
2022/09/22 06:40:58;;;;;;;17.08;3.03;;;8.40;64.60;;;;;;5080722;28;20033;-59
2022/09/22 06:43:24;;;;;;;13.25;2.47;;;8.60;64.70;;;;;;5079144;28;20025;-60
2022/09/22 06:45:50;;;;;;;4.57;2.50;;;8.70;64.30;;;;;;5087152;28;20056;-59
2022/09/22 06:48:17;;;;;;;6.82;2.55;;;8.80;64.10;;;;;;5100081;28;20032;-59
2022/09/22 06:50:53;;;;;;;7.35;2.65;;;8.90;63.90;;;;;;5082006;28;20029;-59
2022/09/22 06:53:19;;;;;;;4.55;2.35;;;9.10;64.30;;;;;;5093108;28;20017;-59
2022/09/22 06:55:46;;;;;;;5.22;2.88;;;9.20;63.90;;;;;;5081868;28;20047;-60
2022/09/22 06:58:13;;;;;;;7.50;3.10;;;9.30;63.70;;;;;;5087874;28;20078;-59
2022/09/22 07:00:42;;;;;;;13.38;2.88;;;9.50;63.70;;;;;;5084666;28;20505;-59
2022/09/22 07:03:21;;;;;;;6.63;2.78;;;9.60;63.70;;;;;;5084392;28;20055;-59
2022/09/22 07:06:00;;;;;;;10.02;3.45;;;9.70;63.80;;;;;;5084863;28;20060;-58
2022/09/22 07:08:32;;;;;;;11.75;3.40;;;9.90;63.60;;;;;;5073198;28;20036;-59
2022/09/22 07:11:07;;;;;;;7.30;2.80;;;10.00;63.30;;;;;;5082086;28;20495;-58
2022/09/22 07:13:38;;;;;;;13.00;3.58;;;10.20;63.10;;;;;;5071686;28;20024;-59
2022/09/22 07:16:07;;;;;;;7.20;3.00;;;10.30;62.90;;;;;;5081050;28;20468;-59
2022/09/22 07:18:34;;;;;;;8.23;3.35;;;10.40;62.80;;;;;;5087035;28;20339;-60
2022/09/22 07:21:07;;;;;;;7.60;3.10;;;10.60;62.90;;;;;;5087749;28;20393;-60
2022/09/22 07:23:34;;;;;;;11.43;3.10;;;10.70;62.80;;;;;;5106585;28;20057;-58
2022/09/22 07:26:05;;;;;;;7.93;2.83;;;10.80;62.60;;;;;;5080580;28;20097;-59
2022/09/22 07:28:33;;;;;;;8.85;2.85;;;11.00;62.70;;;;;;5074164;28;20379;-59
2022/09/22 07:31:07;;;;;;;9.30;3.10;;;11.20;62.60;;;;;;5088192;28;20099;-59
2022/09/22 07:33:37;;;;;;;4.18;2.65;;;11.30;62.50;;;;;;5065704;28;20098;-59
2022/09/22 07:36:08;;;;;;;4.47;2.65;;;11.50;62.50;;;;;;5087477;28;20044;-59
2022/09/22 07:38:38;;;;;;;4.30;2.72;;;11.60;62.40;;;;;;5085252;28;20048;-59
2022/09/22 07:41:08;;;;;;;7.63;2.30;;;11.80;62.40;;;;;;5088781;28;20032;-59
2022/09/22 07:43:34;;;;;;;4.07;2.28;;;11.90;62.10;;;;;;5064024;28;20063;-58
2022/09/22 07:46:01;;;;;;;7.60;2.75;;;12.10;62.00;;;;;;5084420;28;20060;-59
2022/09/22 07:48:47;;;;;;;6.05;2.70;;;12.20;61.80;;;;;;5092811;28;20024;-59
2022/09/22 07:51:24;;;;;;;5.30;3.08;;;12.40;61.80;;;;;;5083162;28;20104;-58
2022/09/22 07:53:53;;;;;;;5.47;2.92;;;12.50;61.50;;;;;;5103288;28;20500;-59
2022/09/22 07:56:20;;;;;;;4.05;2.70;;;12.70;61.50;;;;;;5083962;28;20088;-59
2022/09/22 07:58:52;;;;;;;6.60;2.83;;;12.90;61.50;;;;;;5079095;28;20039;-59
2022/09/22 08:01:21;;;;;;;6.18;2.83;;;13.00;61.00;;;;;;5084705;28;20112;-59
2022/09/22 08:03:47;;;;;;;5.85;3.50;;;13.20;60.90;;;;;;5092045;28;20059;-60
2022/09/22 08:06:15;;;;;;;4.10;2.75;;;13.30;60.90;;;;;;5081167;28;20036;-60
2022/09/22 08:08:41;;;;;;;10.80;3.28;;;13.50;60.70;;;;;;5094075;28;20090;-59
2022/09/22 08:11:13;;;;;;;6.82;3.42;;;13.70;60.50;;;;;;5086341;28;20751;-59
2022/09/22 08:13:48;;;;;;;4.20;2.67;;;13.80;60.30;;;;;;5106131;28;20024;-61
2022/09/22 08:16:17;;;;;;;2.88;2.50;;;14.00;59.90;;;;;;5068783;28;20025;-58
2022/09/22 08:18:43;;;;;;;5.88;2.45;;;14.10;59.80;;;;;;5081607;28;20048;-59
2022/09/22 08:21:09;;;;;;;3.67;2.88;;;14.20;59.60;;;;;;5086767;28;20143;-59
2022/09/22 08:23:36;;;;;;;4.95;2.90;;;14.30;59.50;;;;;;5096669;28;20024;-58
2022/09/22 08:26:06;;;;;;;3.00;2.70;;;14.40;59.30;;;;;;5087722;28;20041;-60
2022/09/22 08:28:32;;;;;;;3.58;2.53;;;14.60;59.20;;;;;;5084459;28;20025;-58
2022/09/22 08:30:58;;;;;;;5.22;2.20;;;14.70;59.20;;;;;;5088969;28;20044;-60
2022/09/22 08:33:25;;;;;;;3.17;2.38;;;14.90;59.20;;;;;;5087379;28;20028;-59
2022/09/22 08:35:57;;;;;;;5.22;2.35;;;15.00;58.70;;;;;;5081493;28;20056;-60
2022/09/22 08:38:24;;;;;;;2.75;2.00;;;15.10;58.50;;;;;;5075622;28;20028;-58
2022/09/22 08:41:02;;;;;;;4.25;2.42;;;15.30;58.40;;;;;;5078051;28;20032;-58
2022/09/22 08:43:28;;;;;;;2.88;2.28;;;15.40;57.70;;;;;;5071948;28;20033;-59
2022/09/22 08:45:54;;;;;;;4.82;2.30;;;15.60;57.60;;;;;;5090025;28;20041;-60
2022/09/22 08:51:50;;;;;;;4.03;1.90;;;15.80;56.60;;;;;;5086326;28;20054;-59
2022/09/22 08:54:24;;;;;;;4.68;1.77;;;15.90;56.80;;;;;;5089166;28;20029;-58
2022/09/22 08:57:09;;;;;;;2.42;1.88;;;16.00;56.70;;;;;;5072613;28;20059;-60
2022/09/22 08:59:58;;;;;;;2.53;1.58;;;16.10;55.90;;;;;;5068870;28;20047;-60
2022/09/22 09:02:44;;;;;;;2.58;1.75;;;16.20;56.30;;;;;;5085229;28;20029;-58
2022/09/22 09:05:19;;;;;;;3.25;1.95;;;16.30;56.30;;;;;;5071296;28;20436;-59
2022/09/22 09:08:12;;;;;;;2.28;1.70;;;16.40;56.00;;;;;;5079930;28;20035;-58
2022/09/22 09:10:44;;;;;;;2.80;1.70;;;16.50;55.50;;;;;;5072184;28;20036;-59
2022/09/22 09:13:44;;;;;;;4.35;1.85;;;16.60;55.60;;;;;;5088909;28;20044;-59
2022/09/22 09:16:32;;;;;;;3.55;1.77;;;16.80;55.40;;;;;;5047172;28;20072;-58
2022/09/22 09:19:35;;;;;;;2.85;1.90;;;16.90;55.50;;;;;;5070587;28;20139;-58
2022/09/22 09:22:24;;;;;;;1.92;1.35;;;17.00;54.90;;;;;;5045440;28;20671;-60
2022/09/22 09:24:56;;;;;;;5.15;1.48;;;17.10;54.00;;;;;;5057696;28;20108;-58
2022/09/22 09:27:25;;;;;;;2.90;1.67;;;17.20;54.20;;;;;;5052355;28;20049;-59
2022/09/22 09:30:03;;;;;;;2.60;1.70;;;17.30;54.50;;;;;;5079070;28;20052;-61
2022/09/22 09:32:40;;;;;;;1.65;1.50;;;17.30;53.80;;;;;;5049860;28;20041;-59
2022/09/22 09:35:13;;;;;;;1.60;1.42;;;17.40;54.10;;;;;;5056042;28;20036;-60
2022/09/22 09:37:41;;;;;;;1.73;1.45;;;17.50;54.00;;;;;;5085229;28;20028;-60
2022/09/22 09:40:17;;;;;;;1.55;1.45;;;17.60;53.80;;;;;;5062815;28;20120;-59
2022/09/22 09:42:45;;;;;;;2.47;1.40;;;17.70;53.30;;;;;;5060056;28;20504;-59
2022/09/22 09:45:14;;;;;;;2.30;1.38;;;17.80;53.40;;;;;;5065843;28;20073;-59
2022/09/22 09:47:57;;;;;;;3.35;1.17;;;17.90;53.00;;;;;;5077582;28;20029;-59
2022/09/22 09:50:26;;;;;;;2.10;1.50;;;17.90;52.80;;;;;;5048477;28;20064;-60
2022/09/22 09:52:52;;;;;;;4.57;1.60;;;18.00;53.00;;;;;;5087894;28;20040;-60
2022/09/22 09:55:24;;;;;;;1.52;1.17;;;18.10;52.70;;;;;;5100734;28;20027;-59
2022/09/22 10:00:29;;;;;;;1.73;1.30;;;18.20;52.90;;;;;;5067570;28;20051;-59
2022/09/22 10:00:59;;;;;;;1.65;1.27;;;18.40;52.10;;;;;;5076944;28;20060;-60
2022/09/22 10:03:31;;;;;;;3.05;1.70;;;18.50;52.50;;;;;;5096990;28;20035;-59
2022/09/22 10:06:03;;;;;;;1.67;1.50;;;18.60;51.80;;;;;;5089586;28;20143;-61
2022/09/22 10:08:35;;;;;;;1.70;1.42;;;18.60;50.70;;;;;;5077986;28;20036;-59
2022/09/22 10:11:02;;;;;;;2.00;1.50;;;18.70;51.30;;;;;;5068071;28;20170;-60
2022/09/22 10:13:37;;;;;;;4.93;2.30;;;18.70;51.00;;;;;;5081827;28;20025;-61
2022/09/22 10:16:06;;;;;;;2.13;1.40;;;18.70;50.70;;;;;;5087023;28;20028;-60
2022/09/22 10:18:36;;;;;;;2.88;1.50;;;18.80;50.30;;;;;;5098222;28;20047;-59
2022/09/22 10:21:02;;;;;;;3.88;1.48;;;18.80;50.30;;;;;;5094878;28;20036;-60
2022/09/22 10:23:31;;;;;;;7.13;1.60;;;18.80;50.60;;;;;;5094334;28;20033;-60
2022/09/22 10:26:18;;;;;;;2.47;1.42;;;18.90;50.60;;;;;;5086964;28;20067;-61
2022/09/22 10:28:49;;;;;;;2.08;1.20;;;18.90;50.60;;;;;;5090971;28;20025;-61
2022/09/22 10:31:25;;;;;;;5.07;1.50;;;19.00;50.30;;;;;;5092604;28;20028;-61
2022/09/22 10:33:58;;;;;;;6.10;1.40;;;19.10;49.30;;;;;;5076485;28;20479;-60
2022/09/22 10:36:29;;;;;;;1.58;1.27;;;19.20;48.20;;;;;;5082083;28;20104;-60
2022/09/22 10:38:55;;;;;;;1.83;1.30;;;19.20;48.50;;;;;;5069516;28;20464;-60
2022/09/22 10:41:26;;;;;;;3.28;1.02;;;19.20;49.20;;;;;;5091055;28;20037;-60
2022/09/22 10:44:25;;;;;;;2.15;1.40;;;19.30;48.80;;;;;;5079974;28;20402;-60
2022/09/22 10:47:15;;;;;;;2.45;1.30;;;19.30;48.50;;;;;;5042309;28;20076;-60
2022/09/22 10:49:46;;;;;;;3.38;1.30;;;19.40;48.90;;;;;;5038958;28;20083;-58
2022/09/22 10:52:34;;;;;;;1.67;1.20;;;19.50;48.70;;;;;;5040296;28;20092;-60
2022/09/22 10:55:05;;;;;;;2.85;1.25;;;19.50;46.60;;;;;;5025019;28;20053;-60
2022/09/22 10:57:42;;;;;;;2.42;1.20;;;19.60;48.30;;;;;;5047561;28;20052;-60
2022/09/22 11:00:19;;;;;;;1.25;1.15;;;19.60;46.90;;;;;;5058093;28;20075;-59
2022/09/22 11:02:57;;;;;;;2.78;1.25;;;19.70;47.20;;;;;;5041025;28;20056;-61
2022/09/22 11:12:20;;;;;;;1.10;1.00;;;19.90;48.00;;;;;;5052943;28;20044;-60
2022/09/22 11:14:52;;;;;;;1.30;1.10;;;19.90;47.10;;;;;;5043140;28;20407;-61
2022/09/22 11:17:57;;;;;;;1.98;1.30;;;20.00;47.30;;;;;;5039237;28;20025;-60
2022/09/22 11:20:41;;;;;;;;;;;20.10;46.00;;;;;;5040392;28;20030;-59
2022/09/22 11:23:39;;;;;;;2.20;1.05;;;20.10;47.60;;;;;;5062834;28;19909;-60
2022/09/22 11:27:00;;;;;;;1.50;1.10;;;20.20;44.80;;;;;;5071770;28;20067;-61
2022/09/22 11:29:40;;;;;;;1.65;1.13;;;20.20;45.00;;;;;;5089322;28;20034;-60
2022/09/22 11:32:12;;;;;;;3.38;1.25;;;20.20;47.00;;;;;;5097730;28;20047;-60
2022/09/22 11:34:49;;;;;;;3.72;1.27;;;20.20;47.10;;;;;;5086098;28;20032;-60
2022/09/22 11:37:28;;;;;;;1.65;1.23;;;20.30;44.10;;;;;;5101290;28;20039;-60
2022/09/22 11:40:19;;;;;;;2.55;1.38;;;20.30;45.30;;;;;;5099909;28;20031;-60
2022/09/22 11:43:24;;;;;;;1.30;1.20;;;20.30;46.40;;;;;;5095417;28;20103;-60
2022/09/22 11:46:31;;;;;;;2.07;1.20;;;20.40;46.10;;;;;;5098878;28;20043;-61
2022/09/22 11:48:57;;;;;;;1.83;1.10;;;20.40;44.50;;;;;;5099795;28;20549;-60
2022/09/22 11:51:45;;;;;;;1.42;1.30;;;20.40;45.70;;;;;;5098767;28;20044;-60
2022/09/22 11:54:20;;;;;;;1.50;1.40;;;20.40;42.30;;;;;;5088002;28;20198;-60
2022/09/22 11:56:53;;;;;;;3.40;1.27;;;20.40;45.70;;;;;;5096124;28;20040;-59
2022/09/22 11:59:47;;;;;;;2.03;1.30;;;20.50;46.00;;;;;;5101543;28;20035;-59
2022/09/22 12:02:53;;;;;;;1.50;1.40;;;20.50;45.80;;;;;;5099052;28;20472;-59
2022/09/22 12:05:21;;;;;;;1.90;1.20;;;20.60;44.80;;;;;;5075660;28;20044;-61
2022/09/22 12:07:58;;;;;;;1.27;1.17;;;20.60;45.70;;;;;;5076765;28;20031;-59
2022/09/22 12:10:34;;;;;;;1.10;1.00;;;20.50;45.50;;;;;;5086576;28;20507;-61
2022/09/22 12:13:07;;;;;;;1.85;1.20;;;20.60;46.30;;;;;;5080249;28;20509;-59
2022/09/22 12:15:39;;;;;;;1.20;1.10;;;20.60;46.40;;;;;;5073817;28;20021;-61
2022/09/22 12:18:13;;;;;;;1.80;1.17;;;20.70;45.70;;;;;;5088964;28;20553;-60
2022/09/22 12:20:39;;;;;;;1.13;1.02;;;20.80;45.80;;;;;;5084541;28;20028;-60
2022/09/22 12:23:14;;;;;;;3.47;1.20;;;20.90;46.20;;;;;;5084965;28;20517;-59
2022/09/22 12:25:47;;;;;;;1.50;1.30;;;21.10;46.10;;;;;;5078843;28;20048;-60
2022/09/22 12:28:24;;;;;;;1.65;1.25;;;21.20;44.10;;;;;;5085145;28;20024;-59
2022/09/22 12:31:11;;;;;;;2.63;1.00;;;21.30;43.30;;;;;;5072406;28;20103;-59
2022/09/22 12:33:45;;;;;;;1.10;0.98;;;21.30;42.90;;;;;;5078162;28;20021;-59
2022/09/22 12:36:11;;;;;;;4.45;1.20;;;21.30;43.60;;;;;;5084340;28;20123;-60
2022/09/22 12:38:37;;;;;;;3.50;1.27;;;21.40;44.40;;;;;;5087189;28;20088;-60
2022/09/22 12:41:04;;;;;;;1.02;0.77;;;21.40;44.00;;;;;;5096929;28;20043;-60
2022/09/22 12:43:32;;;;;;;0.70;0.70;;;21.40;43.10;;;;;;5069447;28;20025;-60
2022/09/22 12:46:10;;;;;;;1.02;0.93;;;21.40;43.50;;;;;;5096771;28;20037;-62
2022/09/22 12:48:36;;;;;;;3.45;1.00;;;21.40;43.30;;;;;;5078930;28;20770;-60
2022/09/22 12:51:16;;;;;;;0.93;0.80;;;21.50;43.30;;;;;;5073875;28;20037;-60
2022/09/22 12:53:42;;;;;;;1.92;1.00;;;21.50;42.60;;;;;;5068594;28;20064;-59
2022/09/22 12:56:46;;;;;;;2.80;0.90;;;21.50;43.10;;;;;;5093084;28;20050;-60
2022/09/22 12:59:36;;;;;;;1.13;1.00;;;21.60;42.40;;;;;;5078904;28;20402;-60
2022/09/22 13:02:14;;;;;;;1.60;0.73;;;21.60;42.10;;;;;;5080093;28;20041;-61
2022/09/22 13:05:00;;;;;;;1.35;0.98;;;21.70;43.00;;;;;;5073072;28;20066;-60
2022/09/22 13:07:40;;;;;;;0.82;0.73;;;21.70;40.20;;;;;;5054045;28;20049;-60
2022/09/22 13:10:23;;;;;;;1.40;0.93;;;21.80;40.70;;;;;;5094232;28;20036;-59
2022/09/22 13:13:11;;;;;;;3.70;1.02;;;21.80;40.70;;;;;;5087434;28;20034;-59
2022/09/22 13:15:48;;;;;;;2.47;1.10;;;21.70;40.50;;;;;;5089063;28;20076;-60
2022/09/22 13:18:34;;;;;;;1.00;0.90;;;21.80;41.30;;;;;;5082130;28;20025;-59
2022/09/22 13:21:21;;;;;;;4.05;1.08;;;21.80;41.30;;;;;;5090366;28;20066;-60
2022/09/22 13:23:52;;;;;;;4.70;1.15;;;21.90;42.60;;;;;;5081143;28;20059;-59
2022/09/22 13:26:19;;;;;;;1.50;1.10;;;22.10;41.30;;;;;;5096545;28;20028;-59
2022/09/22 13:29:05;;;;;;;1.17;1.00;;;22.10;41.60;;;;;;5072556;28;20033;-60
2022/09/22 13:31:45;;;;;;;1.30;1.00;;;22.20;40.70;;;;;;5092005;28;21165;-60